Doty, WA

4:09 PM PDT on September 17, 2014 (GMT -0700)
Chehalis-Centralia | Change Station
CLOSE
Current Station
Airport
Location: Chehalis,
Elevation: 177 ft
Nearby Weather Stations
4.0 Earthquake: Seabeck, Washington (13 hours ago)  

Elev 177 ft 46.68 °N, 122.98 °W | Updated 14 minutes ago

Partly Cloudy
Partly Cloudy
73 °F
Feels Like 73 °F
N
5
Wind Variable Wind from Variable

Today
High -- | Low -- °F
--% Chance of Precip.
Yesterday
High -- | Low -- °F
Precip. -- in
6:53 AM 7:20 PM
Waning Crescent, 32% visible
Pressure 29.71 in
Visibility 10.0 miles
Clouds Clear
Dew Point 61 °F
Humidity 65%
Rainfall 0.00 in
Snow Depth 0 in , 0 in , 0 in
UV 3 out of 12
Pollen 1.60 out of 12
PM2.5 Good
Flu Activity Not available.
METAR KCLS 172255Z AUTO VRB04KT 10SM CLR 23/16 A2971 RMK AO2

More Conditions Fewer Conditions

Pressure 29.71 in
Visibility 10.0 miles
Clouds Clear
Dew Point 61 °F
Humidity 65%
Rainfall 0.00 in
Snow Depth 0 in , 0 in , 0 in
UV 3 out of 12
Pollen 1.60 out of 12
PM2.5 Good
Flu Activity Not available.
METAR KCLS 172255Z AUTO VRB04KT 10SM CLR 23/16 A2971 RMK AO2

More Conditions Fewer Conditions

10-Day Weather Forecast

Almanac

Astronomy

Sep. 17, 2014 Rise Set
Actual Time 6:53 AM PDT 7:20 PM PDT
Civil Twilight 6:23 AM PDT 7:50 PM PDT
Nautical Twilight 5:47 AM PDT 8:26 PM PDT
Astronomical Twilight 5:10 AM PDT 9:03 PM PDT
Moon 12:43 AM PDT 3:48 PM PDT
Length of Visible Light 13h 27m
Length of Day
12h 26m
Tomorrow will be 3m 17s shorter.
Waning Crescent, 32% of the Moon is Illuminated
Today
Waning Crescent
Sep 24
New
Oct 1
First Quarter
Oct 8
Full
Oct 15
Last Quarter

Today's Extremes

State Highs State Lows

Community

WunderPhotos

Upload Photos

1,754,187 photos uploaded!

Nearby

Air Quality

  Air Quality AQ Index Pollutant
Yesterday Good
PM2.5
Current Good
PM2.5

Snow Depth

Station Depth Elevation
Spruce Springs 0 in 5700 ft
Surprise Lakes 0 in 4250 ft
Grouse Camp 0 in 5380 ft
Rainy Pass 0 in 4780 ft
Harts Pass 0 in 6500 ft

Earthquake Activity

City Distance Mag. Time & Date
Seabeck, Washington 65 miles 4.0 3:06 AM PDT
2014-09-17
Morton, Washington 47 miles 3.0 5:43 AM PDT
2014-09-16
Minimum magnitude displayed is 2.5.

Coastal Water Temperatures

Place Temperature
Astoria, OR 64.0 °F
Westport, WA 57.9 °F

Nearby Weather Stations